Big Bear Station Historical Data
Daily Summary for May 2, 2019 Units:  English    Metric   Both
Next Day »
Daily Weekly Monthly Yearly Custom
  High: Low: Average:
Temperature: 67.5 °F 31.3 °F 47.6 °F
Dew Point: 45.4 °F 23.5 °F 33.5 °F
Humidity: 87% 28% 62%
Wind Speed: 8.9mph 0mph 1.4mph
Wind Gust: -999mph - -
Wind- - West
Pressure: 23.50 in 23.46 in -
Precipitation: 0 in    
Historical Graphs
 
 
Tabular Data for May 2, 2019
Time Temperature Dew Point Pressure Wind Wind Speed Wind Gust Humidity Rainfall Rate (Hourly)
00:11 38.1 °F 32.8 °F 23.50 in Calm   -999 mph 81% 0.00 in
00:26 37.6 °F 30.7 °F 23.50 in Calm   -999 mph 76% 0.00 in
00:41 36.9 °F 30.7 °F 23.50 in Calm   -999 mph 78% 0.00 in
00:56 36.5 °F 30.6 °F 23.50 in Calm   -999 mph 79% 0.00 in
01:12 36.1 °F 30.5 °F 23.50 in Calm   -999 mph 80% 0.00 in
01:27 35.6 °F 28.8 °F 23.49 in Calm   -999 mph 76% 0.00 in
01:42 35.2 °F 28.1 °F 23.49 in Calm   -999 mph 75% 0.00 in
01:57 34.7 °F 26.3 °F 23.48 in Calm   -999 mph 71% 0.00 in
02:12 34.5 °F 27.7 °F 23.48 in Calm   -999 mph 76% 0.00 in
02:28 34.2 °F 29 °F 23.48 in Calm   -999 mph 81% 0.00 in
02:43 34.2 °F 29.6 °F 23.48 in Calm   -999 mph 83% 0.00 in
02:58 33.6 °F 27.8 °F 23.48 in Calm   -999 mph 79% 0.00 in
03:13 33.4 °F 27.3 °F 23.47 in Calm   -999 mph 78% 0.00 in
03:28 32.9 °F 27.4 °F 23.47 in Calm   -999 mph 80% 0.00 in
03:44 32.5 °F 26.1 °F 23.47 in Calm   -999 mph 77% 0.00 in
03:59 32.4 °F 25.4 °F 23.47 in Calm   -999 mph 75% 0.00 in
04:14 32.4 °F 26.9 °F 23.47 in Calm   -999 mph 80% 0.00 in
04:29 32.2 °F 27.3 °F 23.47 in Calm   -999 mph 82% 0.00 in
04:45 32 °F 26.8 °F 23.47 in Calm   -999 mph 81% 0.00 in
05:00 32 °F 27.7 °F 23.47 in Calm   -999 mph 84% 0.00 in
05:15 31.8 °F 28.1 °F 23.46 in Calm   -999 mph 86% 0.00 in
05:30 31.5 °F 28.1 °F 23.47 in Calm   -999 mph 87% 0.00 in
05:45 31.5 °F 28.1 °F 23.46 in Calm   -999 mph 87% 0.00 in
06:01 31.3 °F 27.9 °F 23.46 in Calm   -999 mph 87% 0.00 in
06:16 31.3 °F 27.9 °F 23.47 in Calm   -999 mph 87% 0.00 in
06:31 31.5 °F 27.8 °F 23.47 in Calm   -999 mph 86% 0.00 in
06:46 31.6 °F 27.6 °F 23.47 in Calm   -999 mph 85% 0.00 in
07:01 32.2 °F 28.2 °F 23.47 in Calm   -999 mph 85% 0.00 in
07:17 33.6 °F 28.7 °F 23.48 in Calm   -999 mph 82% 0.00 in
07:32 34.2 °F 29.6 °F 23.48 in Calm   -999 mph 83% 0.00 in
07:47 35.8 °F 31.1 °F 23.48 in Calm   -999 mph 83% 0.00 in
08:02 38.1 °F 32.2 °F 23.48 in Calm   -999 mph 79% 0.00 in
08:17 41.2 °F 33.2 °F 23.48 in Calm   -999 mph 73% 0.00 in
08:33 42.3 °F 33.6 °F 23.48 in Calm   -999 mph 71% 0.00 in
08:48 44.4 °F 34.5 °F 23.48 in Calm   -999 mph 68% 0.00 in
09:03 47.8 °F 31.5 °F 23.48 in Calm   -999 mph 53% 0.00 in
09:18 49.1 °F 30.8 °F 23.49 in NW 1.1 mph -999 mph 49% 0.00 in
09:33 52.2 °F 29.2 °F 23.48 in Calm   -999 mph 41% 0.00 in
09:49 54.1 °F 29.7 °F 23.48 in Calm   -999 mph 39% 0.00 in
10:04 55.2 °F 23.5 °F 23.49 in West 2.2 mph -999 mph 29% 0.00 in
10:19 55.4 °F 23.6 °F 23.49 in WSW 4.2 mph -999 mph 29% 0.00 in
10:35 56.3 °F 24.4 °F 23.49 in WNW 2.7 mph -999 mph 29% 0.00 in
10:50 56.3 °F 26 °F 23.49 in WNW 3.7 mph -999 mph 31% 0.00 in
11:05 59 °F 27.6 °F 23.49 in NW 3.7 mph -999 mph 30% 0.00 in
11:20 60.1 °F 27.7 °F 23.49 in SSE 2.2 mph -999 mph 29% 0.00 in
11:35 60.4 °F 28.8 °F 23.49 in NW 3.7 mph -999 mph 30% 0.00 in
11:51 63.7 °F 31.7 °F 23.49 in NW 3.7 mph -999 mph 30% 0.00 in
12:06 64.9 °F 31 °F 23.48 in North 3.7 mph -999 mph 28% 0.00 in
12:22 64.8 °F 30.9 °F 23.48 in East 4.7 mph -999 mph 28% 0.00 in
12:37 67.5 °F 33.2 °F 23.48 in WNW 4.2 mph -999 mph 28% 0.00 in
12:52 66.4 °F 34 °F 23.48 in West 4.2 mph -999 mph 30% 0.00 in
13:07 65.5 °F 34.1 °F 23.48 in NW 5.3 mph -999 mph 31% 0.00 in
13:23 64.6 °F 34.1 °F 23.48 in NW 4.2 mph -999 mph 32% 0.00 in
13:38 64.4 °F 33.9 °F 23.48 in WNW 4.7 mph -999 mph 32% 0.00 in
14:09 64.9 °F 35.9 °F 23.48 in NNW 7.3 mph -999 mph 34% 0.00 in
14:24 63.7 °F 36.2 °F 23.48 in NW 8.9 mph -999 mph 36% 0.00 in
14:39 63 °F 36.3 °F 23.48 in NNE 5.3 mph -999 mph 37% 0.00 in
14:54 62.6 °F 36.6 °F 23.48 in SE 1.7 mph -999 mph 38% 0.00 in
15:10 61.5 °F 36.9 °F 23.48 in NW 5.8 mph -999 mph 40% 0.00 in
15:25 61.5 °F 38.2 °F 23.47 in West 5.3 mph -999 mph 42% 0.00 in
15:40 62.4 °F 38.4 °F 23.47 in NW 4.2 mph -999 mph 41% 0.00 in
15:55 61.5 °F 39.4 °F 23.46 in WNW 4.7 mph -999 mph 44% 0.00 in
16:11 62.6 °F 41 °F 23.46 in WNW 4.2 mph -999 mph 45% 0.00 in
16:26 62.8 °F 41.7 °F 23.46 in NNW 3.7 mph -999 mph 46% 0.00 in
16:41 62.1 °F 42.2 °F 23.46 in SW 4.2 mph -999 mph 48% 0.00 in
16:57 60.8 °F 42.6 °F 23.46 in WNW 3.2 mph -999 mph 51% 0.00 in
17:12 61.7 °F 43.9 °F 23.46 in WNW 2.7 mph -999 mph 52% 0.00 in
17:28 63.9 °F 45.4 °F 23.46 in NW 4.2 mph -999 mph 51% 0.00 in
17:43 62.4 °F 44.5 °F 23.46 in WNW 2.2 mph -999 mph 52% 0.00 in
17:58 63.7 °F 44.7 °F 23.46 in NW 4.7 mph -999 mph 50% 0.00 in
18:13 62.6 °F 44.7 °F 23.46 in West 1.7 mph -999 mph 52% 0.00 in
18:29 61.3 °F 45 °F 23.46 in Calm   -999 mph 55% 0.00 in
18:44 56.8 °F 43.9 °F 23.46 in ESE 1.7 mph -999 mph 62% 0.00 in
18:59 54.9 °F 43.8 °F 23.46 in Calm   -999 mph 66% 0.00 in
19:14 53.1 °F 43.6 °F 23.46 in Calm   -999 mph 70% 0.00 in
19:29 51.6 °F 42.9 °F 23.47 in Calm   -999 mph 72% 0.00 in
19:45 50.7 °F 42.4 °F 23.47 in Calm   -999 mph 73% 0.00 in
20:00 48.9 °F 42.7 °F 23.47 in Calm   -999 mph 79% 0.00 in
20:15 47.7 °F 42.2 °F 23.48 in Calm   -999 mph 81% 0.00 in
20:30 46.8 °F 41.3 °F 23.48 in Calm   -999 mph 81% 0.00 in
20:45 46.4 °F 40.9 °F 23.48 in Calm   -999 mph 81% 0.00 in
21:01 45.7 °F 39.9 °F 23.49 in Calm   -999 mph 80% 0.00 in
21:16 44.6 °F 38.5 °F 23.49 in Calm   -999 mph 79% 0.00 in
21:31 44.1 °F 37.4 °F 23.49 in Calm   -999 mph 77% 0.00 in
21:46 43.3 °F 35.6 °F 23.49 in Calm   -999 mph 74% 0.00 in
22:01 42.6 °F 34.6 °F 23.49 in Calm   -999 mph 73% 0.00 in
22:17 42.3 °F 34.3 °F 23.49 in Calm   -999 mph 73% 0.00 in
22:32 41.5 °F 33.5 °F 23.49 in Calm   -999 mph 73% 0.00 in
22:47 41.2 °F 32.9 °F 23.49 in Calm   -999 mph 72% 0.00 in
23:02 40.8 °F 32.1 °F 23.49 in Calm   -999 mph 71% 0.00 in
23:18 40.6 °F 32.6 °F 23.49 in Calm   -999 mph 73% 0.00 in
23:33 40.5 °F 32.9 °F 23.49 in Calm   -999 mph 74% 0.00 in
23:48 39.7 °F 32.8 °F 23.49 in Calm   -999 mph 76% 0.00 in
Big Bear CA Weather